New Holland, South Carolina
Current Conditions -  °F | °C
As of 3:15 PM on Saturday 25 Oct 2014 (Local Time) from KAIK Reporting Station
Clear Clear  
Wind Chill: 73°   Ceiling: Unl
Heat Index: 73°   Visibility: 10mi
Dew Point: 46°   Wind: 3mph
Humidity: 38%   Direction: 290°WNW
Pressure: 30.01"   Gusts: NA
Location:  33.6528°N, 81.4253°W
Report Text: KAIK 251915Z AUTO 29003KT 10SM CLR 23/08 A3001 RMK AO2 PNO
Loading
Personal Weather Stations






























Interactive Weather Map
Tropical Storm Tracking
New forecast layout! Learn more

10-Day Weather Forecast

Advertisements
Track Severe Weather on mobile